Pagrindinis puslapis
METAR-TAF:

METAR-TAF

Oro uostai :

Phrė, Tailandas

platuma: 18-10N, ilguma: 100-10E, Aukštis: 161 m

Dabartinis oras

Ataskaita buvo paskelbta 38 minutes, ne 08:00 UTC
Vėjas 4 kt nuo kintamojo kryptimis
Temperatūra 35°C
Drėgmė 25%
Slėgis 1014 hPa
Matomumas 10 km arba daugiau
Mažai debesys ne aukštis 3000 ft

METAR: VTCP 230800Z VRB04KT 9999 FEW030 35/12 Q1014 NOSIG

Laikas: 15:38 (08:38 UTC)

Prognozė

Ataskaita buvo paskelbta 3 valandos ir 38 minutes, ne 05:00 UTC
Prognozė galioja nuo 23 metu 06 UTC su 24 metu 06 UTC
Vėjas 5 kt iš Pietų/Pietryčių
Matomumas: 8000 m

TAF: VTCP 230500Z 2306/2406 16005KT 8000 NSC

Orai ataskaitas ir orų prognozės (METAR, TAF).

turimą stotys yra geltonos ir raudonos taškus žemėlapyje.

Perkelti pele per norėdami pamatyti stoties vardą.

Tada spustelėkite, norėdami matyti oro stebėjimo ir prognozės.

Norėdami pakeisti žemėlapį: spustelėkite ant žalios mygtukų su juodo kryžiaus žemyn,; žalią mygtuką su brūkšneliu, jei norite nutolinti; arba žalių rodyklių gretimoms žemėlapius.


METAR-TAF: